createdAt,value
2023-02-11T00:01:47.887Z,18.30
2023-02-11T00:04:17.116Z,18.20
2023-02-11T00:06:46.473Z,18.20
2023-02-11T00:09:15.641Z,18.20
2023-02-11T00:11:44.813Z,18.20
2023-02-11T00:14:15.465Z,18.20
2023-02-11T00:16:44.845Z,18.20
2023-02-11T00:19:14.247Z,18.20
2023-02-11T00:21:44.737Z,18.20
2023-02-11T00:24:13.934Z,18.20
2023-02-11T00:26:43.361Z,18.10
2023-02-11T00:29:12.522Z,18.20
2023-02-11T00:31:44.591Z,18.10
2023-02-11T00:34:13.923Z,18.10
2023-02-11T00:36:43.148Z,18.10
2023-02-11T00:39:12.561Z,18.10
2023-02-11T00:41:41.798Z,18.10
2023-02-11T00:44:11.086Z,18.00
2023-02-11T00:46:40.437Z,18.00
2023-02-11T00:49:14.505Z,18.00
2023-02-11T00:51:44.189Z,18.00
2023-02-11T00:54:13.548Z,18.00
2023-02-11T00:56:42.977Z,18.00
2023-02-11T00:59:12.258Z,18.00
2023-02-11T01:01:41.507Z,18.00
2023-02-11T01:04:11.739Z,18.00
2023-02-11T01:06:42.447Z,17.90
2023-02-11T01:09:11.780Z,17.90
2023-02-11T01:11:40.976Z,17.90
2023-02-11T01:14:10.693Z,17.90
2023-02-11T01:16:40.443Z,17.90
2023-02-11T01:19:09.971Z,17.90
2023-02-11T01:21:39.307Z,17.80
2023-02-11T01:24:10.039Z,17.80
2023-02-11T01:26:39.330Z,17.90
2023-02-11T01:29:09.489Z,17.80
2023-02-11T01:31:38.808Z,17.80
2023-02-11T01:34:08.110Z,17.80
2023-02-11T01:36:39.490Z,17.80
2023-02-11T01:39:10.395Z,17.80
2023-02-11T01:41:39.891Z,17.80
2023-02-11T01:44:27.637Z,17.70
2023-02-11T01:46:57.447Z,17.80
2023-02-11T01:49:30.014Z,17.70
2023-02-11T01:52:03.442Z,17.70
2023-02-11T01:54:53.905Z,17.70
2023-02-11T01:57:27.609Z,17.70
2023-02-11T02:00:11.606Z,17.70
2023-02-11T02:02:50.243Z,17.60
2023-02-11T02:05:25.237Z,17.70
2023-02-11T02:08:02.562Z,17.60
2023-02-11T02:10:35.551Z,17.60
2023-02-11T02:13:04.886Z,17.60
2023-02-11T02:15:35.552Z,17.60
2023-02-11T02:18:39.291Z,17.60
2023-02-11T02:21:49.596Z,17.60
2023-02-11T02:24:36.551Z,17.60
2023-02-11T02:27:27.873Z,17.60
2023-02-11T02:30:28.282Z,17.50
2023-02-11T02:33:22.523Z,17.50
2023-02-11T02:36:00.607Z,17.50
2023-02-11T02:38:34.494Z,17.50
2023-02-11T02:41:08.495Z,17.50
2023-02-11T02:43:43.024Z,17.50
2023-02-11T02:46:14.768Z,17.40
2023-02-11T02:48:46.380Z,17.40
2023-02-11T02:51:32.088Z,17.40
2023-02-11T02:54:30.870Z,17.50
2023-02-11T02:57:14.798Z,17.50
2023-02-11T02:59:54.252Z,17.40
2023-02-11T03:02:28.537Z,17.40
2023-02-11T03:05:07.588Z,17.40
2023-02-11T03:07:45.310Z,17.40
2023-02-11T03:10:18.752Z,17.40
2023-02-11T03:12:50.102Z,17.40
2023-02-11T03:15:21.631Z,17.40
2023-02-11T03:17:54.568Z,17.40
2023-02-11T03:20:25.474Z,17.40
2023-02-11T03:22:59.516Z,17.40
2023-02-11T03:25:36.172Z,17.40
2023-02-11T03:28:10.494Z,17.30
2023-02-11T03:30:44.982Z,17.30
2023-02-11T03:33:19.722Z,17.30
2023-02-11T03:35:56.065Z,17.30
2023-02-11T03:38:30.129Z,17.30
2023-02-11T03:41:02.076Z,17.30
2023-02-11T03:43:35.014Z,17.30
2023-02-11T03:46:05.942Z,17.30
2023-02-11T03:48:39.681Z,17.30
2023-02-11T03:51:12.441Z,17.20
2023-02-11T03:53:44.677Z,17.20
2023-02-11T03:56:19.202Z,17.20
2023-02-11T03:58:50.194Z,17.20
2023-02-11T04:01:19.602Z,17.20
2023-02-11T04:03:48.883Z,17.20
2023-02-11T04:06:19.670Z,17.20
2023-02-11T04:08:48.857Z,17.20
2023-02-11T04:11:18.047Z,17.20
2023-02-11T04:13:47.229Z,17.20
2023-02-11T04:16:16.630Z,17.10
2023-02-11T04:18:45.970Z,17.10
2023-02-11T04:21:15.153Z,17.10
2023-02-11T04:23:45.839Z,17.10
2023-02-11T04:26:15.098Z,17.10
2023-02-11T04:28:44.315Z,17.10
2023-02-11T04:31:13.590Z,17.10
2023-02-11T04:33:42.776Z,17.10
2023-02-11T04:36:12.027Z,17.10
2023-02-11T04:38:41.335Z,17.10
2023-02-11T04:41:11.926Z,17.00
2023-02-11T04:43:41.088Z,17.00
2023-02-11T04:46:10.363Z,17.00
2023-02-11T04:48:39.629Z,17.00
2023-02-11T04:51:08.888Z,17.00
2023-02-11T04:53:38.043Z,17.00
2023-02-11T04:56:07.644Z,17.00
2023-02-11T04:58:38.308Z,17.00
2023-02-11T05:01:08.995Z,17.00
2023-02-11T05:03:38.817Z,17.00
2023-02-11T05:06:08.949Z,17.00
2023-02-11T05:08:38.156Z,16.90
2023-02-11T05:11:07.898Z,16.90
2023-02-11T05:13:38.545Z,16.90
2023-02-11T05:16:08.251Z,16.90
2023-02-11T05:18:39.423Z,16.90
2023-02-11T05:21:09.927Z,16.90
2023-02-11T05:23:39.888Z,16.90
2023-02-11T05:26:09.837Z,16.90
2023-02-11T05:28:40.890Z,16.90
2023-02-11T05:31:10.276Z,16.90
2023-02-11T05:33:39.724Z,16.90
2023-02-11T05:36:11.337Z,16.90
2023-02-11T05:38:42.794Z,16.90
2023-02-11T05:41:13.110Z,16.90
2023-02-11T05:43:43.824Z,16.90
2023-02-11T05:46:13.099Z,16.80
2023-02-11T05:48:42.334Z,16.80
2023-02-11T05:51:11.874Z,16.80
2023-02-11T05:53:41.167Z,16.80
2023-02-11T05:56:10.657Z,16.80
2023-02-11T05:58:40.058Z,16.80
2023-02-11T06:01:10.852Z,16.80
2023-02-11T06:03:40.227Z,16.80
2023-02-11T06:06:12.837Z,16.80
2023-02-11T06:08:42.152Z,16.80
2023-02-11T06:11:11.342Z,16.80
2023-02-11T06:13:40.574Z,16.80
2023-02-11T06:16:11.392Z,16.80
2023-02-11T06:18:40.856Z,16.80
2023-02-11T06:21:11.169Z,16.90
2023-02-11T06:23:40.636Z,16.90
2023-02-11T06:26:17.656Z,16.80
2023-02-11T06:28:47.116Z,16.80
2023-02-11T06:31:18.160Z,16.80
2023-02-11T06:33:47.492Z,16.80
2023-02-11T06:36:19.340Z,16.80
2023-02-11T06:38:49.038Z,16.80
2023-02-11T06:41:20.545Z,16.80
2023-02-11T06:43:50.243Z,16.80
2023-02-11T06:46:21.251Z,16.80
2023-02-11T06:48:50.686Z,16.80
2023-02-11T06:51:19.913Z,16.80
2023-02-11T06:53:49.533Z,16.80
2023-02-11T06:56:20.952Z,16.80
2023-02-11T06:58:53.502Z,16.80
2023-02-11T07:01:25.581Z,16.80
2023-02-11T07:03:55.285Z,16.80
2023-02-11T07:06:28.088Z,16.70
2023-02-11T07:08:57.944Z,16.60
2023-02-11T07:11:28.868Z,16.50
2023-02-11T07:14:01.846Z,16.50
2023-02-11T07:16:33.420Z,16.50
2023-02-11T07:19:02.848Z,16.50
2023-02-11T07:21:32.218Z,16.60
2023-02-11T07:24:01.483Z,16.60
2023-02-11T07:26:30.733Z,16.60
2023-02-11T07:29:00.208Z,16.70
2023-02-11T07:31:32.217Z,16.70
2023-02-11T07:34:03.462Z,16.70
2023-02-11T07:36:33.615Z,16.70
2023-02-11T07:39:02.839Z,16.80
2023-02-11T07:41:32.646Z,16.90
2023-02-11T07:44:04.674Z,17.10
2023-02-11T07:46:36.014Z,17.20
2023-02-11T07:49:05.339Z,17.40
2023-02-11T07:51:34.612Z,17.50
2023-02-11T07:54:04.095Z,17.60
2023-02-11T07:56:35.029Z,17.70
2023-02-11T07:59:05.624Z,17.90
2023-02-11T08:01:36.467Z,18.00
2023-02-11T08:04:06.214Z,18.20
2023-02-11T08:06:36.798Z,18.30
2023-02-11T08:09:07.334Z,18.30
2023-02-11T08:11:36.891Z,18.50
2023-02-11T08:14:06.342Z,18.60
2023-02-11T08:16:39.044Z,18.60
2023-02-11T08:19:13.809Z,18.70
2023-02-11T08:21:43.309Z,18.70
2023-02-11T08:24:12.827Z,18.80
2023-02-11T08:26:42.444Z,18.90
2023-02-11T08:29:13.813Z,18.90
2023-02-11T08:31:47.579Z,18.90
2023-02-11T08:34:19.251Z,18.90
2023-02-11T08:36:49.581Z,18.90
2023-02-11T08:39:21.366Z,18.90
2023-02-11T08:41:52.340Z,18.90
2023-02-11T08:44:22.823Z,18.90
2023-02-11T08:46:54.065Z,18.90
2023-02-11T08:49:24.002Z,18.90
2023-02-11T08:51:54.417Z,19.00
2023-02-11T08:54:23.702Z,19.00
2023-02-11T08:56:53.468Z,19.00
2023-02-11T08:59:22.798Z,19.00
2023-02-11T09:01:53.656Z,19.10
2023-02-11T09:04:23.166Z,19.20
2023-02-11T09:06:52.466Z,19.20
2023-02-11T09:09:21.823Z,19.20
2023-02-11T09:11:51.159Z,19.20
2023-02-11T09:14:22.104Z,19.30
2023-02-11T09:16:53.721Z,19.30
2023-02-11T09:19:23.260Z,19.30
2023-02-11T09:21:52.549Z,19.30
2023-02-11T09:24:21.881Z,19.30
2023-02-11T09:26:51.271Z,19.30
2023-02-11T09:29:20.656Z,19.30
2023-02-11T09:31:50.625Z,19.30
2023-02-11T09:34:21.357Z,19.30
2023-02-11T09:36:50.660Z,19.30
2023-02-11T09:39:20.974Z,19.20
2023-02-11T09:42:10.231Z,19.20
2023-02-11T09:44:40.581Z,19.20
2023-02-11T09:47:24.774Z,19.20
2023-02-11T09:50:01.982Z,19.20
2023-02-11T09:52:39.374Z,19.20
2023-02-11T09:55:20.112Z,19.10
2023-02-11T09:57:49.632Z,19.10
2023-02-11T10:00:22.447Z,19.10
2023-02-11T10:03:07.838Z,19.10
2023-02-11T10:05:59.993Z,19.00
2023-02-11T10:08:36.305Z,19.00
2023-02-11T10:11:26.067Z,18.90
2023-02-11T10:14:06.771Z,18.70
2023-02-11T10:17:13.247Z,18.70
2023-02-11T10:20:03.327Z,18.60
2023-02-11T10:22:38.906Z,18.60
2023-02-11T10:25:21.110Z,18.60
2023-02-11T10:27:51.256Z,18.60
2023-02-11T10:30:32.627Z,18.70
2023-02-11T10:33:05.794Z,18.60
2023-02-11T10:35:35.237Z,18.60
2023-02-11T10:38:06.060Z,18.70
2023-02-11T10:40:35.274Z,18.60
2023-02-11T10:43:08.027Z,18.50
2023-02-11T10:45:40.247Z,18.60
2023-02-11T10:48:43.066Z,18.60
2023-02-11T10:51:19.780Z,18.70
2023-02-11T10:53:52.013Z,18.70
2023-02-11T10:56:26.928Z,18.80
2023-02-11T10:59:00.301Z,18.90
2023-02-11T11:01:46.744Z,19.00
2023-02-11T11:04:36.658Z,19.00
2023-02-11T11:07:21.909Z,19.10
2023-02-11T11:09:55.232Z,19.20
2023-02-11T11:12:36.066Z,19.20
2023-02-11T11:15:18.974Z,19.30
2023-02-11T11:17:48.358Z,19.40
2023-02-11T11:20:23.008Z,19.50
2023-02-11T11:22:55.378Z,19.50
2023-02-11T11:25:30.930Z,19.60
2023-02-11T11:28:02.771Z,19.70
2023-02-11T11:30:40.583Z,19.80
2023-02-11T11:33:22.402Z,19.80
2023-02-11T11:36:02.548Z,19.90
2023-02-11T11:38:33.358Z,20.00
2023-02-11T11:41:18.231Z,20.10
2023-02-11T11:44:03.263Z,20.20
2023-02-11T11:46:35.862Z,20.30
2023-02-11T11:49:14.966Z,20.30
2023-02-11T11:51:52.645Z,20.40
2023-02-11T11:54:23.363Z,20.50
2023-02-11T11:57:00.300Z,20.50
2023-02-11T11:59:30.790Z,20.50
2023-02-11T12:02:21.678Z,20.60
2023-02-11T12:05:03.778Z,20.60
2023-02-11T12:07:46.347Z,20.70
2023-02-11T12:10:40.841Z,20.70
2023-02-11T12:13:21.133Z,20.70
2023-02-11T12:16:00.200Z,20.70
2023-02-11T12:18:45.547Z,20.80
2023-02-11T12:21:36.536Z,20.80
2023-02-11T12:24:19.445Z,20.80
2023-02-11T12:26:55.150Z,20.80
2023-02-11T12:29:33.717Z,20.80
2023-02-11T12:32:17.137Z,20.80
2023-02-11T12:35:07.561Z,20.80
2023-02-11T12:37:53.046Z,20.80
2023-02-11T12:40:28.873Z,20.80
2023-02-11T12:43:18.674Z,20.70
2023-02-11T12:46:06.842Z,20.80
2023-02-11T12:48:48.578Z,20.70
2023-02-11T12:51:32.538Z,20.60
2023-02-11T12:54:19.586Z,20.60
2023-02-11T12:56:54.767Z,20.60
2023-02-11T12:59:42.096Z,20.60
2023-02-11T13:02:28.351Z,20.60
2023-02-11T13:05:02.802Z,20.60
2023-02-11T13:07:36.173Z,20.70
2023-02-11T13:10:18.754Z,20.70
2023-02-11T13:13:08.914Z,20.70
2023-02-11T13:15:38.984Z,20.80
2023-02-11T13:18:21.405Z,20.80
2023-02-11T13:20:57.682Z,20.90
2023-02-11T13:23:36.368Z,21.00
2023-02-11T13:26:14.469Z,21.00
2023-02-11T13:28:48.779Z,21.10
2023-02-11T13:31:20.554Z,21.10
2023-02-11T13:33:51.401Z,21.10
2023-02-11T13:36:26.136Z,21.20
2023-02-11T13:39:04.510Z,21.30
2023-02-11T13:41:37.097Z,21.30
2023-02-11T13:44:26.714Z,21.30
2023-02-11T13:46:59.871Z,21.40
2023-02-11T13:49:35.462Z,21.30
2023-02-11T13:52:08.155Z,21.40
2023-02-11T13:54:40.263Z,21.40
2023-02-11T13:57:33.077Z,21.40
2023-02-11T14:00:03.951Z,21.40
2023-02-11T14:02:55.899Z,21.30
2023-02-11T14:05:52.787Z,21.30
2023-02-11T14:08:42.567Z,21.30
2023-02-11T14:11:46.660Z,21.30
2023-02-11T14:14:25.182Z,21.30
2023-02-11T14:17:35.108Z,21.30
2023-02-11T14:20:05.888Z,21.20
2023-02-11T14:22:49.303Z,21.10
2023-02-11T14:25:23.470Z,21.10
2023-02-11T14:27:57.284Z,21.00
2023-02-11T14:30:48.003Z,20.90
2023-02-11T14:33:58.518Z,20.80
2023-02-11T14:36:58.096Z,20.80
2023-02-11T14:39:41.942Z,20.70
2023-02-11T14:42:20.077Z,20.60
2023-02-11T14:44:52.188Z,20.60
2023-02-11T14:47:26.045Z,20.50
2023-02-11T14:49:56.221Z,20.40
2023-02-11T14:52:30.654Z,20.40
2023-02-11T14:55:29.374Z,20.40
2023-02-11T14:58:13.698Z,20.30
2023-02-11T15:00:54.375Z,20.30
2023-02-11T15:03:34.649Z,20.30
2023-02-11T15:06:07.340Z,20.30
2023-02-11T15:08:43.446Z,20.30
2023-02-11T15:11:16.883Z,20.20
2023-02-11T15:13:49.846Z,20.10
2023-02-11T15:16:22.524Z,20.10
2023-02-11T15:18:54.522Z,20.10
2023-02-11T15:21:25.838Z,20.10
2023-02-11T15:24:00.636Z,20.20
2023-02-11T15:26:32.182Z,20.30
2023-02-11T15:29:02.167Z,20.30
2023-02-11T15:31:34.878Z,20.30
2023-02-11T15:34:09.149Z,20.30
2023-02-11T15:36:39.835Z,20.30
2023-02-11T15:39:33.135Z,20.30
2023-02-11T15:42:20.782Z,20.30
2023-02-11T15:44:56.538Z,20.40
2023-02-11T15:47:26.319Z,20.30
2023-02-11T15:49:55.729Z,20.30
2023-02-11T15:52:27.824Z,20.30
2023-02-11T15:55:00.834Z,20.40
2023-02-11T15:57:31.743Z,20.40
2023-02-11T16:00:04.603Z,20.50
2023-02-11T16:02:45.329Z,20.50
2023-02-11T16:05:28.286Z,20.60
2023-02-11T16:07:58.160Z,20.60
2023-02-11T16:10:30.390Z,20.70
2023-02-11T16:13:21.037Z,20.80
2023-02-11T16:15:52.884Z,20.70
2023-02-11T16:18:38.126Z,20.50
2023-02-11T16:21:16.182Z,20.40
2023-02-11T16:23:52.580Z,20.40
2023-02-11T16:26:29.764Z,20.30
2023-02-11T16:29:12.825Z,20.30
2023-02-11T16:31:43.964Z,20.20
2023-02-11T16:34:16.243Z,20.10
2023-02-11T16:36:46.463Z,20.00
2023-02-11T16:39:16.974Z,20.00
2023-02-11T16:41:46.954Z,20.00
2023-02-11T16:44:17.754Z,19.90
2023-02-11T16:46:47.935Z,19.90
2023-02-11T16:49:22.189Z,19.80
2023-02-11T16:51:56.733Z,19.80
2023-02-11T16:54:26.412Z,19.80
2023-02-11T16:56:55.971Z,19.70
2023-02-11T16:59:27.232Z,19.70
2023-02-11T17:01:57.121Z,19.70
2023-02-11T17:04:28.599Z,19.70
2023-02-11T17:06:58.786Z,19.90
2023-02-11T17:09:31.126Z,19.90
2023-02-11T17:12:00.642Z,19.80
2023-02-11T17:14:31.279Z,19.70
2023-02-11T17:17:01.881Z,19.70
2023-02-11T17:19:31.131Z,19.70
2023-02-11T17:22:00.337Z,19.70
2023-02-11T17:24:29.610Z,19.70
2023-02-11T17:26:58.884Z,19.70
2023-02-11T17:29:28.231Z,19.70
2023-02-11T17:31:58.970Z,19.70
2023-02-11T17:34:29.329Z,19.70
2023-02-11T17:37:00.409Z,19.70
2023-02-11T17:39:29.710Z,19.80
2023-02-11T17:41:58.930Z,19.70
2023-02-11T17:44:28.181Z,19.80
2023-02-11T17:46:58.869Z,19.80
2023-02-11T17:49:28.629Z,19.90
2023-02-11T17:51:58.053Z,19.90
2023-02-11T17:54:27.254Z,20.00
2023-02-11T17:56:58.383Z,20.10
2023-02-11T17:59:31.731Z,20.10
2023-02-11T18:02:03.338Z,20.20
2023-02-11T18:04:32.714Z,20.20
2023-02-11T18:07:01.985Z,20.30
2023-02-11T18:09:31.225Z,20.30
2023-02-11T18:12:00.467Z,20.40
2023-02-11T18:14:29.638Z,20.40
2023-02-11T18:16:58.960Z,20.50
2023-02-11T18:19:32.598Z,20.70
2023-02-11T18:22:02.939Z,20.80
2023-02-11T18:24:32.322Z,20.90
2023-02-11T18:27:02.058Z,20.90
2023-02-11T18:29:31.423Z,21.00
2023-02-11T18:32:00.764Z,21.10
2023-02-11T18:34:31.925Z,21.10
2023-02-11T18:37:01.262Z,21.20
2023-02-11T18:39:30.580Z,21.30
2023-02-11T18:42:00.100Z,21.40
2023-02-11T18:44:29.698Z,21.60
2023-02-11T18:46:59.201Z,21.60
2023-02-11T18:49:28.430Z,21.70
2023-02-11T18:51:59.637Z,21.70
2023-02-11T18:54:28.906Z,21.80
2023-02-11T18:56:58.289Z,21.80
2023-02-11T18:59:27.468Z,21.80
2023-02-11T19:01:56.590Z,21.90
2023-02-11T19:04:25.813Z,21.90
2023-02-11T19:06:55.166Z,21.90
2023-02-11T19:09:25.959Z,21.90
2023-02-11T19:11:57.337Z,21.90
2023-02-11T19:14:28.501Z,21.90
2023-02-11T19:17:00.242Z,21.90
2023-02-11T19:19:31.829Z,21.90
2023-02-11T19:22:02.109Z,21.80
2023-02-11T19:24:33.015Z,21.80
2023-02-11T19:27:04.786Z,21.70
2023-02-11T19:29:35.476Z,21.70
2023-02-11T19:32:06.004Z,21.60
2023-02-11T19:34:41.348Z,21.50
2023-02-11T19:37:12.950Z,21.50
2023-02-11T19:39:44.669Z,21.50
2023-02-11T19:42:14.573Z,21.50
2023-02-11T19:44:43.733Z,21.40
2023-02-11T19:47:13.667Z,21.40
2023-02-11T19:49:42.980Z,21.50
2023-02-11T19:52:12.228Z,21.50
2023-02-11T19:54:42.906Z,21.50
2023-02-11T19:57:12.127Z,21.50
2023-02-11T19:59:41.509Z,21.40
2023-02-11T20:02:11.805Z,21.50
2023-02-11T20:04:41.196Z,21.50
2023-02-11T20:07:10.430Z,21.50
2023-02-11T20:09:41.108Z,21.50
2023-02-11T20:12:12.354Z,21.50
2023-02-11T20:14:41.813Z,21.50
2023-02-11T20:17:11.077Z,21.50
2023-02-11T20:19:40.395Z,21.50
2023-02-11T20:22:09.683Z,21.50
2023-02-11T20:24:38.869Z,21.50
2023-02-11T20:27:08.626Z,21.50
2023-02-11T20:29:39.544Z,21.50
2023-02-11T20:32:10.860Z,21.50
2023-02-11T20:34:40.253Z,21.50
2023-02-11T20:37:10.034Z,21.40
2023-02-11T20:39:42.117Z,21.40
2023-02-11T20:42:12.175Z,21.40
2023-02-11T20:44:42.976Z,21.30
2023-02-11T20:47:13.929Z,21.40
2023-02-11T20:49:43.132Z,21.40
2023-02-11T20:52:12.386Z,21.40
2023-02-11T20:54:41.631Z,21.30
2023-02-11T20:57:10.851Z,21.40
2023-02-11T20:59:40.118Z,21.40
2023-02-11T21:02:13.369Z,21.40
2023-02-11T21:04:42.717Z,21.40
2023-02-11T21:07:11.935Z,21.30
2023-02-11T21:09:41.264Z,21.30
2023-02-11T21:12:10.471Z,21.30
2023-02-11T21:14:39.782Z,21.20
2023-02-11T21:17:10.804Z,21.20
2023-02-11T21:19:41.600Z,21.20
2023-02-11T21:22:11.002Z,21.20
2023-02-11T21:24:40.175Z,21.20
2023-02-11T21:27:09.326Z,21.20
2023-02-11T21:29:52.771Z,21.10
2023-02-11T21:32:24.441Z,21.10
2023-02-11T21:34:54.221Z,21.10
2023-02-11T21:37:24.032Z,21.10
2023-02-11T21:39:53.284Z,21.10
2023-02-11T21:42:22.477Z,21.00
2023-02-11T21:44:51.801Z,21.00
2023-02-11T21:47:21.153Z,21.00
2023-02-11T21:49:51.788Z,21.00
2023-02-11T21:52:21.143Z,21.00
2023-02-11T21:54:51.638Z,20.90
2023-02-11T21:57:20.862Z,20.80
2023-02-11T21:59:50.062Z,20.80
2023-02-11T22:02:19.349Z,20.80
2023-02-11T22:04:48.611Z,20.80
2023-02-11T22:07:20.718Z,20.80
2023-02-11T22:09:52.334Z,20.80
2023-02-11T22:12:21.579Z,20.80
2023-02-11T22:14:50.768Z,20.70
2023-02-11T22:17:19.997Z,20.60
2023-02-11T22:19:49.337Z,20.50
2023-02-11T22:22:19.949Z,20.50
2023-02-11T22:24:49.242Z,20.40
2023-02-11T22:27:20.312Z,20.40
2023-02-11T22:29:49.806Z,20.30
2023-02-11T22:32:19.040Z,20.30
2023-02-11T22:34:48.451Z,20.30
2023-02-11T22:37:17.633Z,20.20
2023-02-11T22:39:48.406Z,20.20
2023-02-11T22:42:17.719Z,20.10
2023-02-11T22:44:47.054Z,20.10
2023-02-11T22:47:16.281Z,20.10
2023-02-11T22:49:45.465Z,20.10
2023-02-11T22:52:14.692Z,20.00
2023-02-11T22:54:44.072Z,20.00
2023-02-11T22:57:14.780Z,19.90
2023-02-11T22:59:44.010Z,19.90
2023-02-11T23:02:13.325Z,19.90
2023-02-11T23:04:42.640Z,19.80
2023-02-11T23:07:12.109Z,19.80
2023-02-11T23:09:41.334Z,19.80
2023-02-11T23:12:10.547Z,19.70
2023-02-11T23:14:41.161Z,19.70
2023-02-11T23:17:10.485Z,19.70
2023-02-11T23:19:39.766Z,19.70
2023-02-11T23:22:08.981Z,19.70
2023-02-11T23:24:38.436Z,19.60
2023-02-11T23:27:07.780Z,19.60
2023-02-11T23:29:36.999Z,19.60
2023-02-11T23:32:07.730Z,19.50
2023-02-11T23:34:37.090Z,19.50
2023-02-11T23:37:06.380Z,19.50
2023-02-11T23:39:35.692Z,19.40
2023-02-11T23:42:05.108Z,19.40
2023-02-11T23:44:34.667Z,19.40
2023-02-11T23:47:03.941Z,19.40
2023-02-11T23:49:34.542Z,19.30
2023-02-11T23:52:03.839Z,19.30
2023-02-11T23:54:33.084Z,19.30
2023-02-11T23:57:02.444Z,19.30
2023-02-11T23:59:31.708Z,19.30
